Time;durP1;ratioP1;P1;durP2;ratioP2;P2;SDS_P1;SDS_P2;PMS_P1;PMS_P2;Temp;Humidity;BMP_temperature;BMP_pressure;BME280_temperature;BME280_humidity;BME280_pressure;Samples;Min_cycle;Max_cycle;Signal;HPM_P1;HPM_P2
2021/10/20 00:00:15;;;;;;;;;;;;;;;18.95;65.40;102236.88;5026340;28;1520;-57
2021/10/20 00:02:42;;;;;;;;;;;;;;;18.96;65.16;102225.22;5029964;28;1918;-58
2021/10/20 00:05:10;;;;;;;;;;;;;;;18.94;65.26;102219.09;5028976;28;1840;-58
2021/10/20 00:07:37;;;;;;;;;;;;;;;18.94;65.64;102220.91;5023929;28;1491;-58
2021/10/20 00:10:04;;;;;;;;;;;;;;;18.98;65.27;102217.94;5030779;28;1492;-58
2021/10/20 00:12:31;;;;;;;;;;;;;;;18.98;65.03;102209.88;5028247;28;1452;-58
2021/10/20 00:14:57;;;;;;;;;;;;;;;18.95;65.46;102217.28;5028461;28;1516;-58
2021/10/20 00:17:24;;;;;;;;;;;;;;;18.95;64.89;102228.84;5025419;28;1417;-58
2021/10/20 00:19:56;;;;;;;;;;;;;;;18.93;65.05;102222.72;5029641;28;1669;-58
2021/10/20 00:22:24;;;;;;;;;;;;;;;18.92;64.67;102228.19;5028966;28;1983;-58
2021/10/20 00:24:50;;;;;;;;;;;;;;;18.93;65.70;102225.41;5025590;28;1464;-58
2021/10/20 00:27:17;;;;;;;;;;;;;;;18.93;65.36;102230.75;5026540;28;1485;-58
2021/10/20 00:29:43;;;;;;;;;;;;;;;18.92;64.51;102223.69;5031597;28;1560;-58
2021/10/20 00:32:10;;;;;;;;;;;;;;;18.90;65.80;102206.84;5021179;28;1507;-58
2021/10/20 00:34:36;;;;;;;;;;;;;;;18.91;65.16;102213.91;5027395;28;1495;-58
2021/10/20 00:37:03;;;;;;;;;;;;;;;18.95;65.08;102201.19;5029738;28;1478;-58
2021/10/20 00:39:31;;;;;;;;;;;;;;;18.87;65.68;102183.78;5022374;28;1542;-58
2021/10/20 00:41:57;;;;;;;;;;;;;;;18.96;65.26;102203.78;5034304;28;1915;-58
2021/10/20 00:44:24;;;;;;;;;;;;;;;18.94;64.24;102197.66;5034189;28;1543;-58
2021/10/20 00:46:50;;;;;;;;;;;;;;;18.94;64.59;102208.38;5028341;28;1483;-58
2021/10/20 00:49:17;;;;;;;;;;;;;;;18.92;64.31;102206.72;5033909;28;1631;-58
2021/10/20 00:51:44;;;;;;;;;;;;;;;18.96;64.86;102219.84;5035620;28;1195;-58
2021/10/20 00:54:10;;;;;;;;;;;;;;;18.93;64.52;102203.09;5025136;28;1461;-58
2021/10/20 00:56:39;;;;;;;;;;;;;;;18.92;64.07;102199.56;5034286;28;1477;-58
2021/10/20 00:59:06;;;;;;;;;;;;;;;18.93;64.24;102209.31;5033696;28;1476;-58
2021/10/20 01:01:32;;;;;;;;;;;;;;;18.95;64.19;102212.75;5031077;28;1977;-58
2021/10/20 01:03:59;;;;;;;;;;;;;;;18.92;64.32;102209.41;5030654;28;1492;-58
2021/10/20 01:06:25;;;;;;;;;;;;;;;18.87;64.67;102209.72;5034762;28;1249;-58
2021/10/20 01:08:52;;;;;;;;;;;;;;;18.85;64.68;102208.97;5026830;28;1417;-58
2021/10/20 01:11:18;;;;;;;;;;;;;;;18.86;64.42;102207.97;5032493;28;1481;-58
2021/10/20 01:13:46;;;;;;;;;;;;;;;18.83;64.71;102203.69;5026613;28;1519;-58
2021/10/20 01:16:13;;;;;;;;;;;;;;;18.86;64.99;102203.50;5032145;28;1395;-58
2021/10/20 01:18:39;;;;;;;;;;;;;;;18.88;64.59;102209.63;5033288;28;1338;-58
2021/10/20 01:21:06;;;;;;;;;;;;;;;18.91;64.95;102207.72;5033930;28;1428;-58
2021/10/20 01:23:34;;;;;;;;;;;;;;;18.88;63.92;102195.38;5033428;28;1902;-58
2021/10/20 01:26:00;;;;;;;;;;;;;;;18.89;64.13;102202.44;5033343;28;1417;-58
2021/10/20 01:28:27;;;;;;;;;;;;;;;18.92;63.65;102212.97;5034005;28;1544;-58
2021/10/20 01:30:53;;;;;;;;;;;;;;;18.95;64.10;102201.19;5032837;28;1484;-58
2021/10/20 01:33:20;;;;;;;;;;;;;;;18.87;64.63;102177.56;5031665;28;1523;-58
2021/10/20 01:35:46;;;;;;;;;;;;;;;18.90;63.66;102185.41;5031747;28;1464;-58
2021/10/20 01:38:13;;;;;;;;;;;;;;;18.90;64.13;102185.41;5034558;28;1529;-58
2021/10/20 01:40:41;;;;;;;;;;;;;;;18.87;64.66;102185.59;5023586;28;1485;-58
2021/10/20 01:43:08;;;;;;;;;;;;;;;18.91;64.62;102178.22;5032711;28;1914;-58
2021/10/20 01:45:34;;;;;;;;;;;;;;;18.86;63.76;102171.34;5031090;28;1570;-58
2021/10/20 01:48:01;;;;;;;;;;;;;;;18.87;64.01;102177.56;5027197;28;1629;-58
2021/10/20 01:50:27;;;;;;;;;;;;;;;18.86;63.49;102178.50;5026413;28;1490;-58
2021/10/20 01:52:54;;;;;;;;;;;;;;;18.85;63.36;102174.13;5032093;28;1296;-58
2021/10/20 01:55:20;;;;;;;;;;;;;;;18.90;63.78;102181.84;5033070;28;1641;-58
2021/10/20 01:57:48;;;;;;;;;;;;;;;18.85;64.17;102168.75;5029862;28;1448;-58
2021/10/20 02:00:15;;;;;;;;;;;;;;;18.86;64.28;102155.25;5030195;28;1528;-58
2021/10/20 02:02:42;;;;;;;;;;;;;;;18.84;64.39;102178.63;5030486;28;1906;-58
2021/10/20 02:05:09;;;;;;;;;;;;;;;18.83;64.20;102168.00;5033333;28;1468;-58
2021/10/20 02:07:35;;;;;;;;;;;;;;;18.81;63.59;102188.69;5027361;28;1633;-59
2021/10/20 02:10:03;;;;;;;;;;;;;;;18.82;64.35;102202.00;5034128;28;1752;-58
2021/10/20 02:12:29;;;;;;;;;;;;;;;18.77;64.22;102181.78;5032796;28;1621;-58
2021/10/20 02:14:57;;;;;;;;;;;;;;;18.79;63.83;102194.13;5030133;28;1593;-58
2021/10/20 02:17:24;;;;;;;;;;;;;;;18.82;63.75;102179.66;5033226;28;1515;-58
2021/10/20 02:19:50;;;;;;;;;;;;;;;18.81;64.03;102191.34;5032647;28;1505;-59
2021/10/20 02:22:17;;;;;;;;;;;;;;;18.76;63.73;102180.03;5032067;28;1902;-58
2021/10/20 02:24:44;;;;;;;;;;;;;;;19.03;64.29;102183.63;5026377;28;1435;-58
2021/10/20 02:27:10;;;;;;;;;;;;;;;19.23;63.16;102181.44;5030733;28;1464;-58
2021/10/20 02:29:37;;;;;;;;;;;;;;;19.24;64.33;102186.72;5030745;28;1525;-58
2021/10/20 02:32:07;;;;;;;;;;;;;;;19.59;64.07;102190.66;5030196;28;1509;-58
2021/10/20 02:34:34;;;;;;;;;;;;;;;19.65;63.22;102184.88;5031760;28;1500;-58
2021/10/20 02:37:00;;;;;;;;;;;;;;;19.35;63.96;102183.31;5028403;28;1537;-58
2021/10/20 02:39:27;;;;;;;;;;;;;;;19.24;64.33;102185.88;5029854;28;1656;-58
2021/10/20 02:41:54;;;;;;;;;;;;;;;19.46;63.46;102180.75;5024946;28;1973;-58
2021/10/20 02:44:20;;;;;;;;;;;;;;;19.57;62.81;102176.47;5027023;28;1409;-58
2021/10/20 02:46:47;;;;;;;;;;;;;;;19.50;63.28;102191.25;5029341;28;1573;-59
2021/10/20 02:49:15;;;;;;;;;;;;;;;19.56;64.19;102183.69;5025350;28;1414;-58
2021/10/20 02:51:41;;;;;;;;;;;;;;;19.79;63.30;102192.84;5030528;28;1354;-58
2021/10/20 02:54:08;;;;;;;;;;;;;;;19.44;63.31;102190.75;5027799;28;1732;-58
2021/10/20 02:56:34;;;;;;;;;;;;;;;19.34;63.25;102192.31;5029807;28;1453;-58
2021/10/20 02:59:01;;;;;;;;;;;;;;;19.59;63.70;102198.69;5025414;28;1519;-58
2021/10/20 03:01:27;;;;;;;;;;;;;;;19.65;63.28;102192.91;5030115;28;1950;-58
2021/10/20 03:03:54;;;;;;;;;;;;;;;19.68;63.13;102184.66;5026551;28;1910;-58
2021/10/20 03:06:22;;;;;;;;;;;;;;;19.34;64.71;102189.66;5029022;28;1354;-58
2021/10/20 03:08:49;;;;;;;;;;;;;;;19.35;63.27;102196.72;5024239;28;1560;-58
2021/10/20 03:11:16;;;;;;;;;;;;;;;19.79;62.85;102187.47;5031757;28;1421;-58
2021/10/20 03:13:43;;;;;;;;;;;;;;;19.41;63.54;102188.25;5027801;28;1472;-58
2021/10/20 03:16:09;;;;;;;;;;;;;;;19.35;64.08;102185.97;5032403;28;1327;-59
2021/10/20 03:18:36;;;;;;;;;;;;;;;19.35;64.30;102188.66;5024969;28;1696;-58
2021/10/20 03:21:02;;;;;;;;;;;;;;;19.46;64.89;102196.84;5032749;28;1465;-58
2021/10/20 03:23:30;;;;;;;;;;;;;;;19.42;65.54;102195.34;5024455;28;1910;-58
2021/10/20 03:25:57;;;;;;;;;;;;;;;19.44;64.89;102196.09;5023791;28;1338;-58
2021/10/20 03:28:23;;;;;;;;;;;;;;;19.46;65.32;102201.38;5029022;28;1496;-58
2021/10/20 03:30:50;;;;;;;;;;;;;;;19.46;64.97;102191.50;5029895;28;1521;-58
2021/10/20 03:33:17;;;;;;;;;;;;;;;19.54;64.85;102190.97;5028009;28;1497;-58
2021/10/20 03:35:43;;;;;;;;;;;;;;;19.62;64.53;102185.94;5032594;28;1382;-59
2021/10/20 03:38:11;;;;;;;;;;;;;;;19.59;65.61;102196.03;5029444;28;1164;-58
2021/10/20 03:40:39;;;;;;;;;;;;;;;19.55;65.32;102194.50;5029595;28;1663;-59
2021/10/20 03:43:06;;;;;;;;;;;;;;;19.62;65.89;102187.78;5032334;28;1983;-58
2021/10/20 03:45:32;;;;;;;;;;;;;;;19.60;66.16;102182.50;5032522;28;1508;-59
2021/10/20 03:47:59;;;;;;;;;;;;;;;19.62;66.12;102183.25;5026606;28;1457;-58
2021/10/20 03:50:26;;;;;;;;;;;;;;;19.63;64.89;102179.59;5032931;28;1395;-59
2021/10/20 03:52:52;;;;;;;;;;;;;;;19.63;65.30;102190.31;5030912;28;1245;-58
2021/10/20 03:55:19;;;;;;;;;;;;;;;19.59;66.47;102185.28;5027620;28;1878;-58
2021/10/20 03:57:47;;;;;;;;;;;;;;;19.36;66.04;102179.66;5031431;28;1433;-58
2021/10/20 04:00:14;;;;;;;;;;;;;;;19.21;66.97;102175.31;5026699;28;1561;-58
2021/10/20 04:02:43;;;;;;;;;;;;;;;19.14;66.27;102177.56;5028700;28;1906;-58
2021/10/20 04:05:09;;;;;;;;;;;;;;;19.10;66.37;102188.56;5023223;28;1428;-58
2021/10/20 04:07:38;;;;;;;;;;;;;;;19.00;66.87;102178.47;5030547;28;1482;-58
2021/10/20 04:10:05;;;;;;;;;;;;;;;18.96;66.47;102182.31;5025678;28;1531;-58
2021/10/20 04:12:32;;;;;;;;;;;;;;;18.95;67.21;102175.22;5028824;28;1429;-58
2021/10/20 04:15:09;;;;;;;;;;;;;;;18.90;67.80;102172.00;5031801;28;1413;-59
2021/10/20 04:20:24;;;;;;;;;;;;;;;18.85;67.04;102183.00;4988228;28;1511;-58
2021/10/20 04:22:52;;;;;;;;;;;;;;;18.81;67.38;102172.59;5025030;28;1906;-59
2021/10/20 04:25:19;;;;;;;;;;;;;;;18.82;67.17;102179.66;5001978;28;10743;-62
2021/10/20 04:27:46;;;;;;;;;;;;;;;18.91;67.51;102189.78;5026870;28;1437;-58
2021/10/20 04:30:15;;;;;;;;;;;;;;;18.85;67.34;102179.47;5029998;28;1520;-58
2021/10/20 04:32:41;;;;;;;;;;;;;;;18.88;66.69;102184.66;5027632;28;1763;-55
2021/10/20 04:35:08;;;;;;;;;;;;;;;18.87;67.11;102173.03;5028427;28;2062;-55
2021/10/20 04:37:35;;;;;;;;;;;;;;;18.80;67.26;102170.88;5028070;28;1175;-60
2021/10/20 04:40:03;;;;;;;;;;;;;;;18.79;68.29;102179.84;5024046;28;1571;-58
2021/10/20 04:42:30;;;;;;;;;;;;;;;18.79;67.85;102190.56;5024580;28;1902;-58
2021/10/20 04:44:57;;;;;;;;;;;;;;;18.81;68.10;102194.03;5028944;28;1453;-56
2021/10/20 04:47:25;;;;;;;;;;;;;;;18.74;67.96;102173.91;5026223;28;1521;-57
2021/10/20 04:49:52;;;;;;;;;;;;;;;18.79;68.21;102187.88;5025378;28;1571;-55
2021/10/20 04:54:44;;;;;;;;;;;;;;;18.72;68.08;102186.56;5119447;27;1477;-55
2021/10/20 04:57:11;;;;;;;;;;;;;;;18.69;68.13;102175.06;5121183;27;1484;-56
2021/10/20 04:59:38;;;;;;;;;;;;;;;18.67;68.33;102176.13;5120138;27;1638;-55
2021/10/20 05:02:04;;;;;;;;;;;;;;;18.72;68.01;102191.91;5119745;27;1525;-56
2021/10/20 05:04:31;;;;;;;;;;;;;;;18.68;68.83;102191.25;5115984;27;1447;-57
2021/10/20 05:06:58;;;;;;;;;;;;;;;18.71;68.64;102187.53;5118406;27;1461;-56
2021/10/20 05:09:25;;;;;;;;;;;;;;;18.79;69.10;102185.22;5114270;27;1483;-55
2021/10/20 05:11:52;;;;;;;;;;;;;;;18.83;68.17;102192.13;5118774;27;1490;-56
2021/10/20 05:14:19;;;;;;;;;;;;;;;18.82;69.55;102195.75;5114728;27;1978;-57
2021/10/20 05:16:46;;;;;;;;;;;;;;;18.85;69.11;102185.69;5115616;27;1518;-57
2021/10/20 05:19:12;;;;;;;;;;;;;;;18.81;70.29;102172.59;5116316;27;1976;-57
2021/10/20 05:21:40;;;;;;;;;;;;;;;18.94;70.24;102194.09;5115464;27;1367;-56
2021/10/20 05:24:07;;;;;;;;;;;;;;;19.21;69.58;102188.72;5115323;27;1411;-56
2021/10/20 05:26:33;;;;;;;;;;;;;;;19.33;68.80;102195.09;5115456;27;1506;-58
2021/10/20 05:29:02;;;;;;;;;;;;;;;19.52;68.98;102192.03;5091160;27;10860;-56
2021/10/20 05:31:28;;;;;;;;;;;;;;;19.78;68.32;102196.50;5056525;28;1512;-57
2021/10/20 05:33:55;;;;;;;;;;;;;;;19.81;68.32;102193.59;5058037;28;1906;-57
2021/10/20 05:36:23;;;;;;;;;;;;;;;19.75;67.78;102190.50;5051455;28;1517;-58
2021/10/20 05:38:49;;;;;;;;;;;;;;;19.90;68.29;102193.97;5056696;28;1523;-60
2021/10/20 05:41:16;;;;;;;;;;;;;;;19.79;67.72;102198.22;5050222;28;1455;-57
2021/10/20 05:43:42;;;;;;;;;;;;;;;19.57;66.82;102197.94;5054411;28;1554;-57
2021/10/20 05:46:10;;;;;;;;;;;;;;;19.54;67.58;102208.91;5055793;28;1523;-55
2021/10/20 05:48:37;;;;;;;;;;;;;;;19.26;68.36;102208.06;5048743;28;1342;-57
2021/10/20 05:51:04;;;;;;;;;;;;;;;19.60;67.99;102206.66;5052276;28;1346;-57
2021/10/20 05:53:30;;;;;;;;;;;;;;;19.63;67.91;102210.94;5050280;28;1906;-57
2021/10/20 05:55:57;;;;;;;;;;;;;;;19.64;68.75;102213.53;5053312;28;1416;-56
2021/10/20 05:58:23;;;;;;;;;;;;;;;19.74;68.44;102205.75;5056203;28;1376;-60
2021/10/20 06:00:50;;;;;;;;;;;;;;;19.53;69.03;102217.91;5052342;28;1992;-57
2021/10/20 06:03:18;;;;;;;;;;;;;;;19.37;69.56;102202.84;5051957;28;1526;-56
2021/10/20 06:05:44;;;;;;;;;;;;;;;19.42;68.48;102219.50;5038863;28;2165;-58
2021/10/20 06:08:11;;;;;;;;;;;;;;;19.57;69.39;102214.03;5036180;28;1466;-57
2021/10/20 06:10:38;;;;;;;;;;;;;;;19.56;69.64;102225.75;5041060;28;1549;-64
2021/10/20 06:13:04;;;;;;;;;;;;;;;19.61;69.91;102220.94;5039424;28;1910;-54
2021/10/20 06:15:31;;;;;;;;;;;;;;;19.64;70.50;102226.09;5038103;28;1583;-55
2021/10/20 06:17:58;;;;;;;;;;;;;;;19.47;70.53;102230.75;5040755;28;1565;-56
2021/10/20 06:20:26;;;;;;;;;;;;;;;19.36;69.89;102252.09;5041076;28;1471;-56
2021/10/20 06:22:52;;;;;;;;;;;;;;;19.61;70.23;102231.66;5046103;28;1496;-60
2021/10/20 06:25:19;;;;;;;;;;;;;;;19.62;69.44;102236.94;5044951;28;1230;-56
2021/10/20 06:27:46;;;;;;;;;;;;;;;19.46;71.44;102228.19;5038220;28;1639;-61
2021/10/20 06:30:13;;;;;;;;;;;;;;;19.39;70.23;102226.88;5035685;28;1455;-55
2021/10/20 06:32:42;;;;;;;;;;;;;;;19.42;71.33;102232.06;5045172;28;1461;-57
2021/10/20 06:35:10;;;;;;;;;;;;;;;19.46;71.33;102238.94;5038242;28;1902;-57
2021/10/20 06:37:38;;;;;;;;;;;;;;;19.34;70.16;102243.28;5038728;28;1495;-56
2021/10/20 06:40:06;;;;;;;;;;;;;;;19.37;71.16;102253.81;5039705;28;1985;-57
2021/10/20 06:42:32;;;;;;;;;;;;;;;19.33;70.71;102252.28;5041841;28;1735;-58
2021/10/20 06:44:59;;;;;;;;;;;;;;;19.51;70.86;102223.38;5039420;28;1510;-57
2021/10/20 06:47:26;;;;;;;;;;;;;;;19.58;69.89;102226.53;5039857;28;1472;-56
2021/10/20 06:49:53;;;;;;;;;;;;;;;19.55;70.26;102250.84;5038218;28;1520;-56
2021/10/20 06:52:19;;;;;;;;;;;;;;;19.59;69.61;102236.28;5043486;28;1337;-56
2021/10/20 06:54:47;;;;;;;;;;;;;;;19.70;70.73;102228.34;5038575;28;1906;-57
2021/10/20 06:57:14;;;;;;;;;;;;;;;19.77;69.45;102237.72;5040898;28;1560;-57
2021/10/20 06:59:41;;;;;;;;;;;;;;;19.74;70.38;102237.09;5040825;28;1568;-56
2021/10/20 07:02:07;;;;;;;;;;;;;;;19.61;70.89;102226.28;5038802;28;1431;-57
2021/10/20 07:04:34;;;;;;;;;;;;;;;19.54;70.10;102225.84;5037219;28;1578;-57
2021/10/20 07:07:00;;;;;;;;;;;;;;;19.81;69.91;102233.00;5034632;28;1176;-57
2021/10/20 07:09:27;;;;;;;;;;;;;;;19.88;69.97;102238.84;5038811;28;1536;-55
2021/10/20 07:11:57;;;;;;;;;;;;;;;19.70;70.54;102235.56;5040466;28;1368;-56
2021/10/20 07:14:24;;;;;;;;;;;;;;;19.65;70.92;102239.38;5039705;28;1910;-55
2021/10/20 07:16:51;;;;;;;;;;;;;;;19.83;70.09;102234.63;5035405;28;1416;-56
2021/10/20 07:19:17;;;;;;;;;;;;;;;19.90;69.95;102232.41;5046984;28;1350;-57
2021/10/20 07:21:44;;;;;;;;;;;;;;;19.77;69.43;102245.78;5035964;28;1471;-57
2021/10/20 07:24:10;;;;;;;;;;;;;;;19.70;70.38;102222.16;5038544;28;1412;-58
2021/10/20 07:26:37;;;;;;;;;;;;;;;19.92;69.19;102230.47;5042451;28;1530;-57
2021/10/20 07:29:05;;;;;;;;;;;;;;;20.08;68.40;102230.25;5040591;28;1510;-60
2021/10/20 07:31:32;;;;;;;;;;;;;;;19.98;68.50;102232.72;5040498;28;1733;-56
2021/10/20 07:33:58;;;;;;;;;;;;;;;19.92;69.82;102241.19;5039137;28;1906;-57
2021/10/20 07:36:25;;;;;;;;;;;;;;;19.99;68.75;102242.47;5038502;28;1245;-58
2021/10/20 07:38:52;;;;;;;;;;;;;;;20.20;68.24;102215.13;5035073;28;1692;-59
2021/10/20 07:41:19;;;;;;;;;;;;;;;20.11;69.67;102224.66;5038673;28;1552;-58
2021/10/20 07:43:45;;;;;;;;;;;;;;;19.94;68.92;102223.16;5038327;28;1470;-58
2021/10/20 07:46:13;;;;;;;;;;;;;;;19.89;69.21;102229.81;5035511;28;1487;-60
2021/10/20 07:48:40;;;;;;;;;;;;;;;20.02;69.72;102210.06;5037933;28;1416;-61
2021/10/20 07:51:07;;;;;;;;;;;;;;;20.18;68.62;102228.63;5040379;28;1881;-60
2021/10/20 07:53:33;;;;;;;;;;;;;;;20.04;69.02;102226.06;5037470;28;1979;-61
2021/10/20 07:56:00;;;;;;;;;;;;;;;19.94;70.42;102227.69;5037946;28;1403;-57
2021/10/20 07:58:26;;;;;;;;;;;;;;;20.05;69.76;102225.97;5041484;28;1467;-60
2021/10/20 08:00:53;;;;;;;;;;;;;;;20.17;69.49;102226.91;5035326;28;1462;-60
2021/10/20 08:03:21;;;;;;;;;;;;;;;20.08;69.35;102230.25;5038996;28;1408;-59
2021/10/20 08:05:47;;;;;;;;;;;;;;;19.96;69.13;102212.31;5045934;28;1715;-57
2021/10/20 08:08:13;;;;;;;;;;;;;;;19.87;69.49;102221.84;5042589;28;1475;-56
2021/10/20 08:10:41;;;;;;;;;;;;;;;20.05;68.90;102204.50;5034258;28;1400;-59
2021/10/20 08:13:08;;;;;;;;;;;;;;;20.13;69.09;102203.06;5041798;28;1249;-56
2021/10/20 08:15:34;;;;;;;;;;;;;;;20.07;68.77;102220.47;5034682;28;1902;-57
2021/10/20 08:18:03;;;;;;;;;;;;;;;19.93;68.45;102210.69;5039750;28;1583;-56
2021/10/20 08:20:34;;;;;;;;;;;;;;;19.94;69.28;102216.94;5034965;28;1451;-57
2021/10/20 08:23:01;;;;;;;;;;;;;;;20.04;69.61;102216.19;5038280;28;1640;-56
2021/10/20 08:25:27;;;;;;;;;;;;;;;20.17;68.57;102218.84;5037585;28;1193;-58
2021/10/20 08:27:54;;;;;;;;;;;;;;;20.02;69.22;102212.75;5040096;28;1711;-56
2021/10/20 08:30:21;;;;;;;;;;;;;;;19.94;69.13;102216.94;5034194;28;1540;-56
2021/10/20 08:32:49;;;;;;;;;;;;;;;20.05;70.08;102212.53;5040108;28;1480;-56
2021/10/20 08:35:16;;;;;;;;;;;;;;;19.98;69.28;102208.56;5035082;28;1906;-56
2021/10/20 08:37:45;;;;;;;;;;;;;;;19.99;70.36;102198.66;5043493;28;1516;-56
2021/10/20 08:40:12;;;;;;;;;;;;;;;19.96;70.12;102212.31;5040841;28;1578;-56
2021/10/20 08:42:39;;;;;;;;;;;;;;;19.94;68.98;102207.06;5045779;28;1521;-56
2021/10/20 08:45:07;;;;;;;;;;;;;;;19.93;69.73;102215.22;5041232;28;1577;-56
2021/10/20 08:47:34;;;;;;;;;;;;;;;19.95;69.47;102208.75;5036775;28;1516;-56
2021/10/20 08:50:02;;;;;;;;;;;;;;;19.96;69.66;102197.06;5041240;28;1390;-59
2021/10/20 08:52:29;;;;;;;;;;;;;;;19.98;69.95;102196.97;5039268;28;1433;-55
2021/10/20 08:54:58;;;;;;;;;;;;;;;20.13;68.86;102219.19;5033609;28;1910;-57
2021/10/20 08:57:25;;;;;;;;;;;;;;;20.05;69.32;102209.84;5039193;28;1654;-56
2021/10/20 08:59:51;;;;;;;;;;;;;;;20.15;68.80;102199.31;5038029;28;1539;-63
2021/10/20 09:02:21;;;;;;;;;;;;;;;20.12;69.12;102207.59;5037706;28;1439;-57
2021/10/20 09:04:50;;;;;;;;;;;;;;;20.09;68.68;102221.22;5034689;28;1326;-59
2021/10/20 09:07:17;;;;;;;;;;;;;;;20.14;69.50;102199.44;5035038;28;1878;-57
2021/10/20 09:09:44;;;;;;;;;;;;;;;20.00;70.45;102195.03;5035920;28;1531;-59
2021/10/20 09:12:12;;;;;;;;;;;;;;;20.03;69.18;102194.78;5036909;28;1467;-57
2021/10/20 09:14:38;;;;;;;;;;;;;;;20.10;70.09;102197.94;5036695;28;1910;-59
2021/10/20 09:17:05;;;;;;;;;;;;;;;20.19;69.19;102189.22;5040257;28;1984;-56
2021/10/20 09:19:32;;;;;;;;;;;;;;;20.26;70.18;102201.25;5038484;28;1507;-58
2021/10/20 09:22:01;;;;;;;;;;;;;;;20.37;69.28;102178.97;5033059;28;1531;-57
2021/10/20 09:24:29;;;;;;;;;;;;;;;20.19;70.31;102199.94;5035351;28;1492;-61
2021/10/20 09:26:57;;;;;;;;;;;;;;;20.11;70.58;102192.44;5036664;28;1420;-59
2021/10/20 09:29:26;;;;;;;;;;;;;;;20.04;69.75;102188.47;5037165;28;1499;-58
2021/10/20 09:31:53;;;;;;;;;;;;;;;19.81;69.91;102184.69;5039405;28;1491;-56
2021/10/20 09:34:20;;;;;;;;;;;;;;;19.84;70.43;102185.34;5035090;28;1979;-58
2021/10/20 09:36:46;;;;;;;;;;;;;;;19.96;70.52;102185.47;5034246;28;1358;-58
2021/10/20 09:39:13;;;;;;;;;;;;;;;19.89;71.05;102176.97;5036488;28;1523;-56
2021/10/20 09:41:40;;;;;;;;;;;;;;;19.83;70.97;102178.25;5037874;28;1846;-58
2021/10/20 09:44:08;;;;;;;;;;;;;;;19.81;71.25;102168.59;5043665;28;1527;-58
2021/10/20 09:46:36;;;;;;;;;;;;;;;19.91;71.38;102171.50;5040982;28;1513;-59
2021/10/20 09:49:04;;;;;;;;;;;;;;;19.93;71.22;102164.19;5047532;28;1402;-57
2021/10/20 09:51:38;;;;;;;;;;;;;;;19.88;70.43;102177.09;5038849;28;1381;-56
2021/10/20 09:54:19;;;;;;;;;;;;;;;19.95;70.99;102154.22;5037502;28;1981;-56
2021/10/20 09:56:52;;;;;;;;;;;;;;;20.01;70.42;102164.50;5039428;28;1466;-57
2021/10/20 09:59:19;;;;;;;;;;;;;;;20.04;69.61;102159.78;5043165;28;1463;-56
2021/10/20 10:01:47;;;;;;;;;;;;;;;19.91;70.54;102160.75;5047212;28;1471;-57
2021/10/20 10:04:14;;;;;;;;;;;;;;;19.85;70.07;102160.22;5039563;28;1508;-56
2021/10/20 10:06:41;;;;;;;;;;;;;;;19.96;70.05;102150.56;5040648;28;1560;-59
2021/10/20 10:09:08;;;;;;;;;;;;;;;20.02;70.86;102152.81;5038093;28;1504;-56
2021/10/20 10:11:35;;;;;;;;;;;;;;;20.06;69.69;102141.75;5040334;28;1413;-56
2021/10/20 10:14:02;;;;;;;;;;;;;;;19.99;70.71;102150.34;5042890;28;1910;-59
2021/10/20 10:16:30;;;;;;;;;;;;;;;19.97;70.92;102147.75;5038345;28;1598;-59
2021/10/20 10:19:00;;;;;;;;;;;;;;;19.97;69.87;102142.38;5039915;28;1640;-61
2021/10/20 10:21:31;;;;;;;;;;;;;;;19.98;69.80;102127.16;5040643;28;1177;-57
2021/10/20 10:23:58;;;;;;;;;;;;;;;20.02;69.69;102142.06;5045838;28;1423;-56
2021/10/20 10:26:25;;;;;;;;;;;;;;;20.05;69.53;102123.94;5044294;28;1680;-58
2021/10/20 10:29:05;;;;;;;;;;;;;;;19.98;69.46;102129.84;5044653;28;1499;-57
2021/10/20 10:31:35;;;;;;;;;;;;;;;19.96;69.05;102126.41;5041822;28;1710;-56
2021/10/20 10:34:03;;;;;;;;;;;;;;;20.01;70.24;102103.59;5034956;28;1977;-57
2021/10/20 10:36:30;;;;;;;;;;;;;;;20.01;70.01;102105.44;5041271;28;1298;-57
2021/10/20 10:39:05;;;;;;;;;;;;;;;20.02;69.49;102107.16;5040279;28;1415;-58
2021/10/20 10:41:34;;;;;;;;;;;;;;;19.91;69.50;102096.31;5039263;28;1616;-57
2021/10/20 10:44:24;;;;;;;;;;;;;;;19.88;70.06;102091.19;5042144;28;1590;-56
2021/10/20 10:47:05;;;;;;;;;;;;;;;20.05;70.25;102106.94;5028022;28;1935;-56
2021/10/20 10:49:35;;;;;;;;;;;;;;;20.07;69.31;102099.63;5039262;28;1522;-57
2021/10/20 10:52:17;;;;;;;;;;;;;;;20.02;68.82;102097.28;5038306;28;1630;-56
2021/10/20 10:54:58;;;;;;;;;;;;;;;19.93;70.14;102091.72;5042460;28;1909;-57
2021/10/20 10:57:35;;;;;;;;;;;;;;;19.97;69.89;102087.84;5039295;28;2052;-56
2021/10/20 11:00:05;;;;;;;;;;;;;;;20.00;70.28;102082.25;5040628;28;1404;-56
2021/10/20 11:02:40;;;;;;;;;;;;;;;20.02;69.87;102080.31;5043174;28;1431;-57
2021/10/20 11:05:09;;;;;;;;;;;;;;;19.98;71.10;102081.50;5043538;28;1329;-57
2021/10/20 11:07:36;;;;;;;;;;;;;;;19.93;70.56;102060.34;5037798;28;1460;-58
2021/10/20 11:10:03;;;;;;;;;;;;;;;20.02;71.00;102061.53;5041550;28;1463;-58
2021/10/20 11:12:30;;;;;;;;;;;;;;;19.94;70.78;102066.59;5043298;28;1558;-57
2021/10/20 11:14:57;;;;;;;;;;;;;;;19.95;70.03;102057.56;5037464;28;1906;-56
2021/10/20 11:17:24;;;;;;;;;;;;;;;20.02;70.43;102045.41;5041780;28;1495;-58
2021/10/20 11:19:50;;;;;;;;;;;;;;;19.98;70.37;102050.13;5044869;28;1444;-57
2021/10/20 11:22:19;;;;;;;;;;;;;;;20.02;69.93;102048.94;5042982;28;1596;-58
2021/10/20 11:24:48;;;;;;;;;;;;;;;20.13;69.19;102055.34;5043409;28;1435;-56
2021/10/20 11:27:14;;;;;;;;;;;;;;;20.17;69.79;102049.66;5038429;28;1583;-57
2021/10/20 11:29:42;;;;;;;;;;;;;;;20.19;69.97;102038.78;5042917;28;1585;-56
2021/10/20 11:32:09;;;;;;;;;;;;;;;20.14;69.83;102041.81;5038592;28;1587;-55
2021/10/20 11:34:38;;;;;;;;;;;;;;;20.08;70.25;102028.00;5039565;28;1910;-57
2021/10/20 11:37:05;;;;;;;;;;;;;;;19.99;70.98;102030.34;5042163;28;1570;-60
2021/10/20 11:39:33;;;;;;;;;;;;;;;19.91;71.54;102026.53;5040795;28;1500;-56
2021/10/20 11:42:01;;;;;;;;;;;;;;;20.08;70.04;102020.78;5041482;28;1516;-62
2021/10/20 11:44:28;;;;;;;;;;;;;;;20.14;70.50;102016.81;5036520;28;1481;-56
2021/10/20 11:46:55;;;;;;;;;;;;;;;20.04;71.55;102025.53;5035490;28;1552;-57
2021/10/20 11:49:22;;;;;;;;;;;;;;;19.95;70.83;102022.66;5042370;28;1511;-59
2021/10/20 11:51:50;;;;;;;;;;;;;;;19.89;71.61;102007.84;5043470;28;1473;-63
2021/10/20 11:54:17;;;;;;;;;;;;;;;19.92;71.25;102004.09;5038353;28;1467;-56
2021/10/20 11:56:50;;;;;;;;;;;;;;;20.08;71.34;101999.31;5037234;28;1914;-54
2021/10/20 11:59:18;;;;;;;;;;;;;;;20.01;70.97;101998.03;5043960;28;1451;-59
2021/10/20 12:01:44;;;;;;;;;;;;;;;20.04;71.30;102000.50;5043381;28;1432;-62
2021/10/20 12:04:11;;;;;;;;;;;;;;;20.08;71.21;101983.19;5042426;28;1482;-56
2021/10/20 12:06:38;;;;;;;;;;;;;;;20.12;70.40;101987.38;5045592;28;1066;-55
2021/10/20 12:09:06;;;;;;;;;;;;;;;20.18;70.51;101978.84;5041142;28;1398;-59
2021/10/20 12:11:33;;;;;;;;;;;;;;;20.10;71.08;101983.94;5043900;28;1609;-58
2021/10/20 12:14:05;;;;;;;;;;;;;;;20.04;70.54;101981.72;5035905;28;1420;-57
2021/10/20 12:16:32;;;;;;;;;;;;;;;19.96;70.78;101974.22;5040402;28;1906;-58
2021/10/20 12:18:58;;;;;;;;;;;;;;;20.09;70.24;101979.53;5043517;28;1088;-57
2021/10/20 12:21:27;;;;;;;;;;;;;;;20.08;71.36;101967.09;5044306;28;1747;-59
2021/10/20 12:23:57;;;;;;;;;;;;;;;20.16;70.07;101951.25;5046953;28;1479;-57
2021/10/20 12:26:24;;;;;;;;;;;;;;;20.17;71.08;101966.38;5042520;28;1257;-57
2021/10/20 12:28:51;;;;;;;;;;;;;;;20.08;70.59;101969.78;5041786;28;1455;-61
2021/10/20 12:31:19;;;;;;;;;;;;;;;20.00;71.33;101964.97;5039400;28;1982;-59
2021/10/20 12:33:46;;;;;;;;;;;;;;;19.87;71.88;101945.34;5040686;28;1532;-59
2021/10/20 12:36:13;;;;;;;;;;;;;;;19.82;72.63;101956.44;5036430;28;1910;-58
2021/10/20 12:38:41;;;;;;;;;;;;;;;20.03;71.07;101947.75;5043693;28;1435;-56
2021/10/20 12:41:09;;;;;;;;;;;;;;;20.06;71.69;101953.78;5045806;28;1392;-58
2021/10/20 12:43:36;;;;;;;;;;;;;;;19.96;71.83;101936.63;5041352;28;1573;-58
2021/10/20 12:46:03;;;;;;;;;;;;;;;19.94;71.56;101948.47;5037093;28;1103;-62
2021/10/20 12:48:31;;;;;;;;;;;;;;;19.86;71.45;101947.19;5038820;28;1153;-58
2021/10/20 12:50:58;;;;;;;;;;;;;;;20.02;71.52;101943.38;5040518;28;1504;-62
2021/10/20 12:53:26;;;;;;;;;;;;;;;20.23;70.28;101943.59;5043078;28;1498;-57